createdAt,value
2022-08-05T00:00:46.615Z,8.35
2022-08-05T00:03:16.600Z,5.82
2022-08-05T00:06:04.859Z,8.43
2022-08-05T00:08:35.244Z,8.93
2022-08-05T00:11:04.261Z,7.50
2022-08-05T00:13:38.238Z,7.38
2022-08-05T00:16:08.893Z,8.18
2022-08-05T00:18:37.972Z,6.90
2022-08-05T00:21:06.508Z,8.52
2022-08-05T00:23:45.814Z,7.85
2022-08-05T00:26:20.470Z,7.22
2022-08-05T00:28:46.981Z,7.95
2022-08-05T00:31:15.976Z,6.40
2022-08-05T00:34:55.263Z,7.80
2022-08-05T00:37:10.631Z,6.25
2022-08-05T00:39:15.636Z,10.43
2022-08-05T00:41:51.663Z,7.38
2022-08-05T00:44:18.950Z,8.18
2022-08-05T00:46:47.459Z,9.20
2022-08-05T00:49:20.959Z,7.68
2022-08-05T00:54:18.955Z,6.82
2022-08-05T00:56:51.312Z,7.10
2022-08-05T00:59:18.459Z,6.82
2022-08-05T01:01:48.710Z,9.82
2022-08-05T01:04:15.691Z,7.03
2022-08-05T01:06:43.690Z,9.07
2022-08-05T01:09:13.175Z,6.25
2022-08-05T01:11:41.522Z,7.22
2022-08-05T01:14:28.267Z,6.65
2022-08-05T01:17:27.395Z,6.97
2022-08-05T01:20:09.287Z,7.30
2022-08-05T01:25:20.954Z,6.78
2022-08-05T01:28:15.602Z,9.55
2022-08-05T01:30:55.256Z,8.30
2022-08-05T01:33:26.479Z,7.05
2022-08-05T01:35:55.638Z,6.18
2022-08-05T01:38:27.357Z,6.95
2022-08-05T01:40:58.796Z,7.20
2022-08-05T01:43:27.864Z,6.07
2022-08-05T01:45:56.566Z,7.07
2022-08-05T01:48:29.388Z,5.55
2022-08-05T01:50:57.624Z,6.20
2022-08-05T01:53:55.235Z,7.75
2022-08-05T01:58:13.576Z,9.50
2022-08-05T01:59:08.211Z,8.05
2022-08-05T02:01:39.839Z,7.00
2022-08-05T02:04:10.360Z,8.02
2022-08-05T02:06:38.945Z,6.43
2022-08-05T02:09:07.301Z,5.07
2022-08-05T02:12:02.876Z,6.28
2022-08-05T02:14:40.023Z,7.30
2022-08-05T02:20:10.142Z,6.20
2022-08-05T02:22:41.816Z,6.60
2022-08-05T02:25:14.369Z,7.50
2022-08-05T02:27:59.237Z,6.03
2022-08-05T02:30:35.247Z,8.93
2022-08-05T02:33:02.662Z,6.57
2022-08-05T02:35:37.763Z,6.47
2022-08-05T02:38:13.279Z,6.07
2022-08-05T02:40:46.896Z,6.97
2022-08-05T02:45:51.466Z,10.43
2022-08-05T02:48:29.455Z,6.32
2022-08-05T02:50:59.709Z,5.90
2022-08-05T02:53:27.767Z,7.20
2022-08-05T02:56:00.326Z,7.95
2022-08-05T02:58:30.287Z,6.75
2022-08-05T03:01:01.813Z,5.95
2022-08-05T03:03:33.818Z,7.43
2022-08-05T03:06:55.285Z,7.75
2022-08-05T03:09:05.138Z,5.45
2022-08-05T03:11:54.769Z,10.25
2022-08-05T03:14:20.893Z,9.15
2022-08-05T03:16:47.651Z,7.03
2022-08-05T03:19:17.373Z,7.35
2022-08-05T03:22:00.160Z,7.38
2022-08-05T03:24:30.425Z,9.90
2022-08-05T03:26:59.044Z,7.50
2022-08-05T03:29:45.721Z,7.05
2022-08-05T03:32:14.377Z,6.15
2022-08-05T03:34:42.013Z,9.00
2022-08-05T03:37:08.551Z,6.88
2022-08-05T03:39:57.684Z,7.85
2022-08-05T03:42:24.028Z,8.20
2022-08-05T03:44:53.769Z,5.68
2022-08-05T03:47:20.366Z,9.93
2022-08-05T03:49:51.980Z,9.82
2022-08-05T03:52:37.321Z,8.23
2022-08-05T03:56:05.685Z,7.30
2022-08-05T03:58:11.062Z,7.15
2022-08-05T04:00:41.985Z,7.05
2022-08-05T04:03:14.916Z,5.72
2022-08-05T04:05:56.160Z,6.70
2022-08-05T04:08:34.918Z,8.82
2022-08-05T04:11:05.987Z,7.45
2022-08-05T04:13:49.850Z,9.25
2022-08-05T04:16:25.020Z,6.75
2022-08-05T04:22:09.008Z,8.55
2022-08-05T04:24:08.938Z,7.78
2022-08-05T04:26:40.850Z,6.93
2022-08-05T04:29:07.628Z,6.53
2022-08-05T04:31:38.569Z,7.13
2022-08-05T04:34:31.175Z,7.95
2022-08-05T04:36:53.043Z,7.68
2022-08-05T04:39:20.247Z,8.82
2022-08-05T04:41:48.061Z,5.95
2022-08-05T04:44:14.999Z,7.88
2022-08-05T04:46:47.672Z,4.78
2022-08-05T04:49:15.349Z,7.15
2022-08-05T04:51:44.028Z,8.50
2022-08-05T04:54:12.019Z,8.77
2022-08-05T04:56:39.209Z,6.72
2022-08-05T04:59:21.722Z,6.53
2022-08-05T05:02:35.457Z,9.95
2022-08-05T05:04:38.498Z,7.78
2022-08-05T05:07:11.623Z,7.35
2022-08-05T05:09:42.328Z,7.38
2022-08-05T05:12:10.968Z,6.90
2022-08-05T05:14:38.229Z,7.30
2022-08-05T05:17:22.741Z,9.05
2022-08-05T05:19:53.257Z,7.93
2022-08-05T05:22:23.469Z,8.50
2022-08-05T05:24:57.593Z,9.70
2022-08-05T05:27:44.776Z,8.05
2022-08-05T05:30:29.866Z,7.45
2022-08-05T05:33:00.622Z,7.28
2022-08-05T05:35:34.274Z,8.02
2022-08-05T05:38:09.419Z,7.22
2022-08-05T05:40:48.249Z,7.22
2022-08-05T05:43:22.270Z,5.70
2022-08-05T05:46:05.210Z,7.22
2022-08-05T05:48:34.451Z,8.55
2022-08-05T05:51:14.797Z,8.82
2022-08-05T05:53:45.948Z,7.63
2022-08-05T05:56:26.080Z,7.90
2022-08-05T05:59:03.437Z,7.93
2022-08-05T06:01:37.552Z,7.90
2022-08-05T06:04:12.196Z,6.07
2022-08-05T06:06:47.339Z,8.77
2022-08-05T06:09:17.729Z,8.20
2022-08-05T06:11:59.725Z,6.82
2022-08-05T06:14:30.756Z,6.05
2022-08-05T06:19:26.129Z,6.72
2022-08-05T06:22:06.631Z,5.85
2022-08-05T06:24:34.840Z,5.43
2022-08-05T06:27:04.013Z,4.18
2022-08-05T06:29:52.033Z,5.97
2022-08-05T06:32:24.921Z,5.10
2022-08-05T06:34:54.066Z,4.63
2022-08-05T06:37:56.082Z,5.43
2022-08-05T06:40:10.116Z,7.30
2022-08-05T06:42:37.356Z,5.57
2022-08-05T06:45:08.923Z,5.22
2022-08-05T06:48:36.208Z,4.50
2022-08-05T06:50:23.599Z,6.53
2022-08-05T06:52:58.642Z,6.57
2022-08-05T06:55:36.383Z,4.80
2022-08-05T06:58:20.581Z,4.50
2022-08-05T07:00:51.167Z,6.15
2022-08-05T07:03:17.834Z,4.20
2022-08-05T07:05:46.202Z,5.85
2022-08-05T07:08:13.268Z,5.97
2022-08-05T07:10:53.327Z,6.20
2022-08-05T07:13:57.688Z,3.65
2022-08-05T07:17:59.876Z,5.35
2022-08-05T07:20:10.580Z,5.63
2022-08-05T07:22:17.610Z,5.43
2022-08-05T07:24:52.715Z,5.30
2022-08-05T07:27:20.250Z,5.57
2022-08-05T07:32:38.503Z,6.00
2022-08-05T07:35:56.065Z,4.85
2022-08-05T07:37:59.096Z,4.78
2022-08-05T07:40:32.205Z,4.25
2022-08-05T07:42:59.284Z,4.68
2022-08-05T07:45:57.468Z,4.07
2022-08-05T07:49:00.985Z,3.55
2022-08-05T07:51:22.991Z,4.65
2022-08-05T07:53:51.680Z,3.45
2022-08-05T07:59:04.816Z,3.45
2022-08-05T08:01:35.373Z,3.65
2022-08-05T08:04:08.108Z,5.57
2022-08-05T08:06:34.692Z,2.97
2022-08-05T08:09:01.179Z,2.95
2022-08-05T08:11:47.810Z,3.80
2022-08-05T08:14:18.219Z,3.67
2022-08-05T08:16:51.029Z,3.13
2022-08-05T08:20:10.437Z,5.95
2022-08-05T08:22:05.106Z,3.53
2022-08-05T08:24:45.992Z,3.00
2022-08-05T08:27:18.918Z,3.33
2022-08-05T08:30:06.088Z,3.35
2022-08-05T08:32:34.715Z,2.60
2022-08-05T08:35:07.564Z,2.85
2022-08-05T08:37:40.372Z,3.72
2022-08-05T08:40:12.360Z,5.72
2022-08-05T08:42:50.671Z,4.18
2022-08-05T08:45:26.637Z,3.97
2022-08-05T08:48:12.938Z,2.60
2022-08-05T08:51:03.389Z,2.30
2022-08-05T08:53:40.211Z,10.27
2022-08-05T08:56:10.993Z,3.17
2022-08-05T08:58:44.563Z,3.10
2022-08-05T09:01:15.746Z,2.80
2022-08-05T09:03:54.316Z,4.00
2022-08-05T09:06:24.227Z,3.92
2022-08-05T09:08:58.591Z,2.08
2022-08-05T09:11:50.806Z,4.00
2022-08-05T09:14:56.768Z,4.60
2022-08-05T09:17:04.651Z,2.80
2022-08-05T09:19:36.665Z,4.30
2022-08-05T09:22:31.810Z,5.00
2022-08-05T09:25:13.824Z,4.53
2022-08-05T09:28:04.420Z,3.10
2022-08-05T09:30:34.694Z,3.70
2022-08-05T09:33:02.365Z,6.28
2022-08-05T09:35:29.480Z,2.75
2022-08-05T09:38:17.267Z,4.28
2022-08-05T09:40:52.545Z,2.05
2022-08-05T09:43:40.604Z,3.72
2022-08-05T09:46:33.075Z,2.90
2022-08-05T09:49:19.012Z,4.25
2022-08-05T09:51:48.751Z,5.05
2022-08-05T09:54:29.102Z,2.50
2022-08-05T09:56:57.560Z,3.88
2022-08-05T09:59:28.057Z,2.15
2022-08-05T10:01:57.922Z,2.30
2022-08-05T10:04:35.280Z,2.90
2022-08-05T10:07:19.632Z,3.67
2022-08-05T10:10:00.303Z,3.20
2022-08-05T10:12:49.212Z,3.60
2022-08-05T10:15:20.195Z,2.88
2022-08-05T10:18:09.817Z,2.83
2022-08-05T10:20:59.454Z,2.10
2022-08-05T10:23:59.924Z,2.63
2022-08-05T10:26:52.405Z,3.10
2022-08-05T10:29:11.397Z,2.85
2022-08-05T10:32:52.338Z,3.25
2022-08-05T10:34:31.102Z,2.45
2022-08-05T10:36:58.360Z,2.53
2022-08-05T10:40:03.157Z,2.78
2022-08-05T10:42:33.789Z,2.75
2022-08-05T10:45:01.933Z,2.40
2022-08-05T10:48:30.384Z,2.47
2022-08-05T10:51:04.797Z,3.50
2022-08-05T10:53:51.998Z,3.10
2022-08-05T10:56:26.147Z,2.38
2022-08-05T10:58:55.682Z,1.88
2022-08-05T11:01:54.929Z,3.15
2022-08-05T11:04:28.267Z,2.85
2022-08-05T11:07:01.374Z,2.53
2022-08-05T11:09:46.079Z,2.85
2022-08-05T11:12:37.226Z,2.55
2022-08-05T11:15:19.113Z,3.25
2022-08-05T11:17:57.883Z,2.55
2022-08-05T11:20:43.632Z,2.72
2022-08-05T11:24:04.963Z,2.40
2022-08-05T11:26:33.053Z,2.03
2022-08-05T11:29:12.027Z,2.70
2022-08-05T11:31:57.608Z,1.88
2022-08-05T11:34:38.616Z,2.00
2022-08-05T11:37:06.253Z,2.95
2022-08-05T11:40:00.456Z,1.75
2022-08-05T11:42:37.754Z,1.90
2022-08-05T11:45:27.037Z,3.15
2022-08-05T11:47:57.937Z,2.03
2022-08-05T11:50:25.814Z,2.28
2022-08-05T11:52:57.701Z,3.08
2022-08-05T11:55:31.812Z,2.25
2022-08-05T11:58:09.648Z,2.35
2022-08-05T12:00:39.019Z,2.38
2022-08-05T12:03:28.529Z,3.15
2022-08-05T12:06:02.846Z,3.08
2022-08-05T12:08:31.659Z,1.80
2022-08-05T12:11:05.803Z,2.90
2022-08-05T12:13:48.872Z,3.08
2022-08-05T12:16:18.993Z,4.50
2022-08-05T12:18:49.331Z,2.38
2022-08-05T12:21:26.792Z,2.55
2022-08-05T12:24:03.354Z,3.58
2022-08-05T12:26:43.863Z,2.65
2022-08-05T12:29:16.426Z,1.63
2022-08-05T12:31:50.132Z,3.30
2022-08-05T12:34:26.669Z,2.40
2022-08-05T12:36:54.507Z,3.22
2022-08-05T12:39:23.692Z,4.93
2022-08-05T12:42:00.854Z,4.15
2022-08-05T12:44:33.333Z,2.88
2022-08-05T12:47:02.142Z,3.83
2022-08-05T12:50:03.869Z,3.97
2022-08-05T12:52:41.668Z,4.65
2022-08-05T12:55:23.236Z,2.75
2022-08-05T12:58:48.494Z,3.30
2022-08-05T13:02:03.462Z,2.40
2022-08-05T13:03:32.381Z,2.88
2022-08-05T13:05:59.892Z,3.53
2022-08-05T13:08:32.138Z,3.38
2022-08-05T13:11:01.967Z,4.28
2022-08-05T13:14:06.170Z,4.53
2022-08-05T13:16:17.155Z,4.03
2022-08-05T13:18:59.420Z,3.53
2022-08-05T13:21:27.882Z,3.60
2022-08-05T13:24:04.860Z,3.28
2022-08-05T13:26:31.386Z,3.25
2022-08-05T13:28:59.313Z,2.83
2022-08-05T13:32:02.943Z,4.05
2022-08-05T13:34:22.766Z,3.28
2022-08-05T13:36:50.311Z,4.03
2022-08-05T13:40:13.959Z,4.00
2022-08-05T13:42:04.901Z,5.50
2022-08-05T13:44:32.679Z,3.00
2022-08-05T13:47:04.867Z,2.78
2022-08-05T13:49:35.899Z,3.30
2022-08-05T13:52:29.112Z,5.25
2022-08-05T13:54:56.969Z,2.97
2022-08-05T13:57:26.173Z,3.92
2022-08-05T14:00:13.122Z,6.10
2022-08-05T14:02:39.697Z,3.38
2022-08-05T14:05:15.272Z,6.55
2022-08-05T14:08:00.875Z,4.38
2022-08-05T14:10:32.440Z,2.63
2022-08-05T14:12:59.359Z,3.47
2022-08-05T14:16:07.886Z,3.47
2022-08-05T14:18:17.370Z,2.05
2022-08-05T14:20:47.729Z,3.45
2022-08-05T14:23:23.813Z,3.45
2022-08-05T14:25:54.548Z,3.40
2022-08-05T14:28:29.463Z,2.92
2022-08-05T14:31:00.603Z,3.70
2022-08-05T14:33:57.013Z,4.00
2022-08-05T14:36:21.387Z,3.95
2022-08-05T14:38:48.415Z,4.43
2022-08-05T14:41:18.718Z,5.70
2022-08-05T14:44:02.718Z,4.35
2022-08-05T14:46:32.732Z,3.40
2022-08-05T14:49:06.906Z,3.40
2022-08-05T14:51:38.032Z,4.90
2022-08-05T14:54:27.842Z,3.60
2022-08-05T14:56:54.604Z,3.15
2022-08-05T14:59:21.818Z,2.50
2022-08-05T15:01:49.724Z,2.30
2022-08-05T15:04:20.644Z,4.53
2022-08-05T15:06:50.282Z,3.58
2022-08-05T15:09:51.039Z,4.78
2022-08-05T15:12:08.870Z,6.10
2022-08-05T15:14:48.144Z,3.70
2022-08-05T15:17:47.231Z,3.35
2022-08-05T15:20:04.206Z,3.63
2022-08-05T15:22:30.667Z,5.35
2022-08-05T15:24:59.201Z,4.25
2022-08-05T15:27:32.011Z,3.38
2022-08-05T15:30:03.764Z,5.25
2022-08-05T15:32:30.333Z,3.63
2022-08-05T15:34:58.254Z,4.60
2022-08-05T15:38:31.961Z,4.90
2022-08-05T15:40:59.707Z,4.18
2022-08-05T15:43:09.208Z,4.43
2022-08-05T15:45:43.895Z,4.13
2022-08-05T15:48:13.956Z,6.35
2022-08-05T15:50:41.212Z,5.03
2022-08-05T15:53:12.778Z,3.03
2022-08-05T15:56:02.706Z,3.67
2022-08-05T15:58:28.210Z,4.53
2022-08-05T16:01:11.660Z,3.15
2022-08-05T16:03:42.317Z,4.00
2022-08-05T16:06:11.205Z,5.07
2022-08-05T16:08:38.627Z,4.03
2022-08-05T16:11:07.123Z,2.85
2022-08-05T16:13:35.163Z,5.80
2022-08-05T16:16:03.608Z,4.75
2022-08-05T16:18:30.998Z,5.90
2022-08-05T16:20:58.597Z,4.95
2022-08-05T16:23:29.192Z,3.63
2022-08-05T16:26:15.690Z,3.25
2022-08-05T16:31:10.511Z,3.38
2022-08-05T16:33:41.505Z,2.95
2022-08-05T16:36:09.092Z,4.07
2022-08-05T16:38:35.762Z,4.80
2022-08-05T16:42:12.118Z,4.32
2022-08-05T16:43:49.328Z,3.03
2022-08-05T16:46:24.829Z,3.05
2022-08-05T16:48:51.870Z,3.42
2022-08-05T16:51:19.241Z,4.50
2022-08-05T16:54:05.650Z,3.40
2022-08-05T16:56:38.128Z,3.50
2022-08-05T16:59:11.901Z,3.60
2022-08-05T17:04:23.812Z,4.05
2022-08-05T17:06:53.662Z,2.75
2022-08-05T17:09:20.586Z,5.60
2022-08-05T17:11:55.987Z,3.30
2022-08-05T17:14:36.851Z,7.43
2022-08-05T17:17:05.766Z,3.63
2022-08-05T17:19:32.276Z,4.82
2022-08-05T17:22:00.627Z,5.57
2022-08-05T17:24:35.226Z,3.85
2022-08-05T17:27:07.473Z,2.97
2022-08-05T17:29:41.113Z,3.28
2022-08-05T17:32:11.637Z,4.65
2022-08-05T17:34:47.647Z,3.35
2022-08-05T17:37:40.241Z,4.05
2022-08-05T17:40:10.000Z,4.10
2022-08-05T17:42:41.557Z,5.55
2022-08-05T17:45:20.782Z,5.70
2022-08-05T17:47:53.429Z,5.70
2022-08-05T17:50:28.558Z,5.22
2022-08-05T17:52:58.935Z,6.70
2022-08-05T17:55:34.363Z,4.60
2022-08-05T17:58:12.913Z,3.22
2022-08-05T18:00:47.634Z,3.83
2022-08-05T18:03:59.622Z,4.47
2022-08-05T18:06:11.974Z,6.80
2022-08-05T18:08:44.800Z,4.60
2022-08-05T18:11:24.349Z,6.97
2022-08-05T18:14:06.804Z,4.22
2022-08-05T18:16:35.200Z,3.45
2022-08-05T18:19:18.187Z,6.05
2022-08-05T18:22:09.470Z,5.60
2022-08-05T18:24:36.189Z,3.97
2022-08-05T18:27:02.699Z,3.97
2022-08-05T18:29:40.512Z,6.25
2022-08-05T18:32:13.086Z,5.35
2022-08-05T18:34:40.696Z,4.28
2022-08-05T18:37:08.402Z,4.43
2022-08-05T18:40:31.051Z,5.03
2022-08-05T18:42:26.216Z,6.57
2022-08-05T18:44:56.540Z,6.00
2022-08-05T18:47:26.344Z,4.82
2022-08-05T18:50:12.083Z,6.40
2022-08-05T18:52:41.813Z,6.13
2022-08-05T18:55:18.594Z,3.80
2022-08-05T19:00:29.193Z,5.00
2022-08-05T19:02:56.907Z,5.80
2022-08-05T19:06:13.612Z,4.18
2022-08-05T19:08:12.196Z,5.20
2022-08-05T19:10:40.745Z,5.18
2022-08-05T19:13:07.425Z,2.95
2022-08-05T19:15:57.538Z,6.28
2022-08-05T19:18:26.068Z,7.47
2022-08-05T19:20:56.559Z,7.18
2022-08-05T19:24:07.389Z,4.93
2022-08-05T19:26:13.875Z,4.07
2022-08-05T19:28:42.237Z,5.88
2022-08-05T19:31:17.765Z,3.97
2022-08-05T19:33:47.933Z,5.28
2022-08-05T19:36:23.075Z,4.18
2022-08-05T19:38:49.607Z,3.67
2022-08-05T19:41:16.109Z,5.15
2022-08-05T19:44:05.653Z,5.03
2022-08-05T19:46:30.959Z,4.60
2022-08-05T19:49:03.141Z,6.82
2022-08-05T19:52:09.411Z,4.93
2022-08-05T19:54:25.536Z,4.32
2022-08-05T19:56:55.223Z,8.05
2022-08-05T19:59:59.332Z,4.65
2022-08-05T20:02:08.461Z,3.65
2022-08-05T20:04:37.236Z,5.65
2022-08-05T20:07:03.938Z,6.20
2022-08-05T20:09:54.985Z,5.45
2022-08-05T20:12:26.476Z,4.28
2022-08-05T20:14:53.319Z,5.80
2022-08-05T20:17:23.492Z,5.30
2022-08-05T20:19:57.012Z,5.32
2022-08-05T20:22:26.746Z,6.20
2022-08-05T20:24:54.529Z,6.15
2022-08-05T20:29:58.531Z,6.18
2022-08-05T20:32:26.580Z,6.10
2022-08-05T20:34:53.622Z,6.18
2022-08-05T20:38:04.873Z,4.15
2022-08-05T20:40:07.911Z,4.93
2022-08-05T20:42:34.716Z,5.05
2022-08-05T20:45:02.101Z,6.85
2022-08-05T20:47:31.119Z,6.18
2022-08-05T20:49:59.434Z,4.97
2022-08-05T20:52:26.383Z,5.93
2022-08-05T20:55:54.283Z,5.50
2022-08-05T20:57:43.319Z,4.53
2022-08-05T21:00:41.432Z,4.95
2022-08-05T21:03:06.213Z,6.18
2022-08-05T21:05:53.843Z,5.65
2022-08-05T21:08:32.904Z,5.03
2022-08-05T21:11:15.259Z,6.57
2022-08-05T21:13:59.913Z,6.20
2022-08-05T21:16:29.326Z,5.68
2022-08-05T21:18:56.811Z,7.50
2022-08-05T21:21:26.746Z,5.40
2022-08-05T21:24:07.315Z,5.97
2022-08-05T21:26:33.938Z,7.63
2022-08-05T21:29:03.736Z,6.57
2022-08-05T21:31:41.541Z,5.95
2022-08-05T21:34:10.606Z,4.80
2022-08-05T21:36:37.960Z,4.78
2022-08-05T21:39:04.848Z,5.13
2022-08-05T21:41:33.786Z,4.90
2022-08-05T21:44:01.537Z,5.85
2022-08-05T21:46:30.980Z,5.05
2022-08-05T21:48:59.986Z,4.72
2022-08-05T21:52:16.620Z,5.57
2022-08-05T21:54:13.191Z,6.05
2022-08-05T21:56:44.506Z,5.40
2022-08-05T21:59:22.604Z,5.43
2022-08-05T22:01:51.689Z,5.90
2022-08-05T22:04:21.149Z,5.53
2022-08-05T22:06:52.367Z,4.45
2022-08-05T22:09:21.058Z,6.57
2022-08-05T22:11:48.945Z,5.25
2022-08-05T22:14:37.354Z,6.57
2022-08-05T22:17:06.582Z,5.35
2022-08-05T22:20:00.302Z,5.30
2022-08-05T22:22:28.263Z,5.35
2022-08-05T22:25:23.981Z,7.18
2022-08-05T22:28:10.405Z,6.82
2022-08-05T22:30:55.612Z,5.85
2022-08-05T22:33:57.106Z,6.72
2022-08-05T22:36:14.209Z,5.03
2022-08-05T22:38:42.539Z,4.55
2022-08-05T22:41:10.203Z,4.75
2022-08-05T22:43:38.081Z,5.05
2022-08-05T22:46:13.670Z,5.82
2022-08-05T22:48:50.534Z,6.25
2022-08-05T22:51:22.729Z,5.50
2022-08-05T22:54:05.102Z,4.60
2022-08-05T22:56:31.900Z,6.55
2022-08-05T22:59:00.022Z,4.50
2022-08-05T23:02:05.227Z,9.13
2022-08-05T23:04:18.102Z,6.68
2022-08-05T23:06:44.595Z,3.78
2022-08-05T23:09:24.634Z,4.55
2022-08-05T23:11:54.750Z,7.82
2022-08-05T23:14:22.544Z,4.95
2022-08-05T23:17:08.138Z,4.45
2022-08-05T23:19:46.575Z,6.65
2022-08-05T23:22:24.195Z,5.10
2022-08-05T23:24:54.789Z,6.53
2022-08-05T23:27:22.717Z,7.00
2022-08-05T23:29:50.807Z,5.07
2022-08-05T23:32:17.499Z,6.30
2022-08-05T23:34:49.855Z,5.43
2022-08-05T23:37:17.677Z,5.72
2022-08-05T23:39:53.340Z,5.75
2022-08-05T23:42:23.550Z,6.65
2022-08-05T23:44:56.638Z,5.43
2022-08-05T23:47:25.051Z,4.05
2022-08-05T23:49:55.583Z,5.40
2022-08-05T23:52:26.491Z,5.25
2022-08-05T23:54:56.042Z,5.30
